createdAt,value
2023-11-25T00:01:21.036Z,82.33
2023-11-25T00:03:48.764Z,82.06
2023-11-25T00:06:16.086Z,81.78
2023-11-25T00:08:43.275Z,80.83
2023-11-25T00:11:18.067Z,80.88
2023-11-25T00:13:53.173Z,81.24
2023-11-25T00:16:22.011Z,81.51
2023-11-25T00:18:51.377Z,81.63
2023-11-25T00:21:22.951Z,81.20
2023-11-25T00:24:16.057Z,81.60
2023-11-25T00:26:46.335Z,81.82
2023-11-25T00:29:24.699Z,81.40
2023-11-25T00:32:12.779Z,81.42
2023-11-25T00:34:41.000Z,81.28
2023-11-25T00:37:44.808Z,80.88
2023-11-25T00:40:18.727Z,80.68
2023-11-25T00:42:56.331Z,79.51
2023-11-25T00:45:28.001Z,80.40
2023-11-25T00:48:00.128Z,80.04
2023-11-25T00:50:31.348Z,79.01
2023-11-25T00:52:59.062Z,79.15
2023-11-25T00:55:28.165Z,78.27
2023-11-25T00:57:56.175Z,78.88
2023-11-25T01:00:24.449Z,78.97
2023-11-25T01:02:55.023Z,78.44
2023-11-25T01:05:25.737Z,78.79
2023-11-25T01:07:53.601Z,81.10
2023-11-25T01:10:23.941Z,83.42
2023-11-25T01:12:53.627Z,85.18
2023-11-25T01:15:22.092Z,85.45
2023-11-25T01:17:50.008Z,84.98
2023-11-25T01:20:17.552Z,84.17
2023-11-25T01:22:49.236Z,83.56
2023-11-25T01:25:22.439Z,84.00
2023-11-25T01:27:50.403Z,83.68
2023-11-25T01:30:22.408Z,81.87
2023-11-25T01:32:52.792Z,82.93
2023-11-25T01:35:24.499Z,83.45
2023-11-25T01:37:55.998Z,85.43
2023-11-25T01:40:24.329Z,88.41
2023-11-25T01:42:59.956Z,89.54
2023-11-25T01:45:39.537Z,87.77
2023-11-25T01:48:13.213Z,86.84
2023-11-25T01:50:43.215Z,85.87
2023-11-25T01:53:11.530Z,84.92
2023-11-25T01:55:42.404Z,85.50
2023-11-25T01:58:21.422Z,84.17
2023-11-25T02:00:57.251Z,83.90
2023-11-25T02:03:29.778Z,85.13
2023-11-25T02:06:31.920Z,83.96
2023-11-25T02:09:12.388Z,84.23
2023-11-25T02:12:07.898Z,83.04
2023-11-25T02:14:39.268Z,82.38
2023-11-25T02:17:14.633Z,82.46
2023-11-25T02:20:01.986Z,82.19
2023-11-25T02:22:31.954Z,80.24
2023-11-25T02:25:06.345Z,80.65
2023-11-25T02:27:35.865Z,79.83
2023-11-25T02:30:08.927Z,79.90
2023-11-25T02:32:45.238Z,80.12
2023-11-25T02:35:16.214Z,78.69
2023-11-25T02:38:10.753Z,78.92
2023-11-25T02:40:51.942Z,78.03
2023-11-25T02:43:36.996Z,78.90
2023-11-25T02:46:14.426Z,78.15
2023-11-25T02:48:50.130Z,78.45
2023-11-25T02:51:27.546Z,77.68
2023-11-25T02:54:13.961Z,77.83
2023-11-25T02:56:45.507Z,78.39
2023-11-25T02:59:18.316Z,78.19
2023-11-25T03:01:54.518Z,77.31
2023-11-25T03:04:28.399Z,78.01
2023-11-25T03:07:07.087Z,77.82
2023-11-25T03:09:37.727Z,78.70
2023-11-25T03:12:11.522Z,77.58
2023-11-25T03:14:42.056Z,77.12
2023-11-25T03:17:16.416Z,77.19
2023-11-25T03:19:43.924Z,77.39
2023-11-25T03:22:11.941Z,75.69
2023-11-25T03:24:54.543Z,75.72
2023-11-25T03:27:42.454Z,75.09
2023-11-25T03:30:24.647Z,75.11
2023-11-25T03:32:53.184Z,75.68
2023-11-25T03:35:25.841Z,75.43
2023-11-25T03:38:35.634Z,76.21
2023-11-25T03:41:20.580Z,75.76
2023-11-25T03:43:52.159Z,76.25
2023-11-25T03:46:28.841Z,75.92
2023-11-25T03:49:00.210Z,75.80
2023-11-25T03:51:33.945Z,76.52
2023-11-25T03:54:07.618Z,77.25
2023-11-25T03:56:35.348Z,77.68
2023-11-25T03:59:06.288Z,77.53
2023-11-25T04:01:45.007Z,77.42
2023-11-25T04:04:15.985Z,76.46
2023-11-25T04:06:50.219Z,76.64
2023-11-25T04:09:21.882Z,77.09
2023-11-25T04:11:49.612Z,76.35
2023-11-25T04:14:26.911Z,76.19
2023-11-25T04:17:12.941Z,75.97
2023-11-25T04:19:47.710Z,75.70
2023-11-25T04:22:29.787Z,75.78
2023-11-25T04:25:10.096Z,75.69
2023-11-25T04:27:53.198Z,75.66
2023-11-25T04:30:26.433Z,75.66
2023-11-25T04:32:54.002Z,75.71
2023-11-25T04:35:27.200Z,76.14
2023-11-25T04:37:59.528Z,75.99
2023-11-25T04:40:35.731Z,75.89
2023-11-25T04:43:15.229Z,75.92
2023-11-25T04:45:43.302Z,76.77
2023-11-25T04:48:14.111Z,76.24
2023-11-25T04:50:47.980Z,75.78
2023-11-25T04:53:21.033Z,76.69
2023-11-25T04:55:49.710Z,76.58
2023-11-25T04:58:29.316Z,76.58
2023-11-25T05:01:02.660Z,76.74
2023-11-25T05:03:41.188Z,76.81
2023-11-25T05:06:12.590Z,76.87
2023-11-25T05:08:46.330Z,75.76
2023-11-25T05:11:25.928Z,76.34
2023-11-25T05:16:57.463Z,75.62
2023-11-25T05:19:31.188Z,74.23
2023-11-25T05:22:17.850Z,75.47
2023-11-25T05:24:56.238Z,74.22
2023-11-25T05:27:29.016Z,75.08
2023-11-25T05:29:56.969Z,73.57
2023-11-25T05:32:32.241Z,73.62
2023-11-25T05:35:11.149Z,73.72
2023-11-25T05:37:50.420Z,73.17
2023-11-25T05:40:19.281Z,74.04
2023-11-25T05:42:58.999Z,73.92
2023-11-25T05:45:56.253Z,75.07
2023-11-25T05:48:34.687Z,74.53
2023-11-25T05:51:12.199Z,74.38
2023-11-25T05:53:59.189Z,74.38
2023-11-25T05:56:32.175Z,74.95
2023-11-25T05:59:02.102Z,74.81
2023-11-25T06:01:53.074Z,75.17
2023-11-25T06:07:33.283Z,75.67
2023-11-25T06:10:17.404Z,76.05
2023-11-25T06:13:16.250Z,74.80
2023-11-25T06:16:05.037Z,76.12
2023-11-25T06:18:32.361Z,75.08
2023-11-25T06:20:59.598Z,76.27
2023-11-25T06:23:26.943Z,76.22
2023-11-25T06:25:56.536Z,74.90
2023-11-25T06:28:25.360Z,75.39
2023-11-25T06:30:55.825Z,75.67
2023-11-25T06:33:25.364Z,75.36
2023-11-25T06:35:56.195Z,74.28
2023-11-25T06:38:24.783Z,74.07
2023-11-25T06:40:52.112Z,73.81
2023-11-25T06:43:19.694Z,73.56
2023-11-25T06:45:46.909Z,72.35
2023-11-25T06:48:14.269Z,72.76
2023-11-25T06:50:41.564Z,73.16
2023-11-25T06:53:08.811Z,74.08
2023-11-25T06:55:36.892Z,74.41
2023-11-25T06:58:04.770Z,74.75
2023-11-25T07:00:32.140Z,74.18
2023-11-25T07:02:59.409Z,73.79
2023-11-25T07:05:27.413Z,74.62
2023-11-25T07:07:54.897Z,73.40
2023-11-25T07:10:22.328Z,72.23
2023-11-25T07:12:49.812Z,72.96
2023-11-25T07:15:17.064Z,73.99
2023-11-25T07:17:44.612Z,73.10
2023-11-25T07:20:16.830Z,73.84
2023-11-25T07:22:44.230Z,73.35
2023-11-25T07:25:14.934Z,73.79
2023-11-25T07:27:46.074Z,72.15
2023-11-25T07:30:14.886Z,72.92
2023-11-25T07:32:43.119Z,73.64
2023-11-25T07:35:10.461Z,73.92
2023-11-25T07:37:38.665Z,74.46
2023-11-25T07:40:11.083Z,73.65
2023-11-25T07:42:38.605Z,74.35
2023-11-25T07:45:11.088Z,74.80
2023-11-25T07:47:39.031Z,73.40
2023-11-25T07:50:06.943Z,73.54
2023-11-25T07:52:34.508Z,72.02
2023-11-25T07:55:02.028Z,72.32
2023-11-25T07:57:29.265Z,71.90
2023-11-25T07:59:56.438Z,70.75
2023-11-25T08:02:24.122Z,70.61
2023-11-25T08:04:52.000Z,69.28
2023-11-25T08:07:19.276Z,66.30
2023-11-25T08:09:46.610Z,66.70
2023-11-25T08:12:13.908Z,67.50
2023-11-25T08:14:41.752Z,68.41
2023-11-25T08:17:09.135Z,65.76
2023-11-25T08:19:36.556Z,66.13
2023-11-25T08:22:04.621Z,67.10
2023-11-25T08:24:36.615Z,67.47
2023-11-25T08:27:03.997Z,68.15
2023-11-25T08:29:31.367Z,69.32
2023-11-25T08:31:58.924Z,69.55
2023-11-25T08:34:26.332Z,69.88
2023-11-25T08:36:54.264Z,69.53
2023-11-25T08:39:22.374Z,69.46
2023-11-25T08:41:51.823Z,69.60
2023-11-25T08:44:19.183Z,69.79
2023-11-25T08:46:46.538Z,69.69
2023-11-25T08:49:19.422Z,69.72
2023-11-25T08:51:51.980Z,69.93
2023-11-25T08:54:19.869Z,69.76
2023-11-25T08:56:48.799Z,68.80
2023-11-25T08:59:21.555Z,68.24
2023-11-25T09:01:50.076Z,68.13
2023-11-25T09:04:21.136Z,68.32
2023-11-25T09:06:49.806Z,68.49
2023-11-25T09:09:18.750Z,67.13
2023-11-25T09:11:47.155Z,67.28
2023-11-25T09:14:17.664Z,67.75
2023-11-25T09:16:45.382Z,68.77
2023-11-25T09:19:14.327Z,68.90
2023-11-25T09:21:42.647Z,68.85
2023-11-25T09:24:10.360Z,69.04
2023-11-25T09:26:38.140Z,68.59
2023-11-25T09:29:06.715Z,68.26
2023-11-25T09:31:34.120Z,68.21
2023-11-25T09:34:04.199Z,68.20
2023-11-25T09:36:31.673Z,68.98
2023-11-25T09:38:59.228Z,70.10
2023-11-25T09:41:27.064Z,69.61
2023-11-25T09:43:54.775Z,69.52
2023-11-25T09:46:22.949Z,69.54
2023-11-25T09:48:50.609Z,70.35
2023-11-25T09:51:25.149Z,70.53
2023-11-25T09:53:56.888Z,70.50
2023-11-25T09:56:24.060Z,70.01
2023-11-25T09:58:51.821Z,70.26
2023-11-25T10:01:19.267Z,69.89
2023-11-25T10:03:49.617Z,69.36
2023-11-25T10:06:16.989Z,70.18
2023-11-25T10:08:44.327Z,69.30
2023-11-25T10:11:15.761Z,70.29
2023-11-25T10:13:44.302Z,70.53
2023-11-25T10:16:12.068Z,70.06
2023-11-25T10:18:41.570Z,69.52
2023-11-25T10:21:09.254Z,69.72
2023-11-25T10:23:37.332Z,69.56
2023-11-25T10:26:05.316Z,69.48
2023-11-25T10:28:35.007Z,68.94
2023-11-25T10:31:06.711Z,69.47
2023-11-25T10:33:35.692Z,69.99
2023-11-25T10:36:04.307Z,69.15
2023-11-25T10:38:32.787Z,70.23
2023-11-25T10:41:02.325Z,70.09
2023-11-25T10:43:33.679Z,70.11
2023-11-25T10:46:04.069Z,69.14
2023-11-25T10:48:31.640Z,69.71
2023-11-25T10:50:59.842Z,69.38
2023-11-25T10:53:30.116Z,69.70
2023-11-25T10:56:02.730Z,69.72
2023-11-25T10:58:33.022Z,69.41
2023-11-25T11:01:02.338Z,69.93
2023-11-25T11:03:55.231Z,70.52
2023-11-25T11:06:29.132Z,70.29
2023-11-25T11:08:57.122Z,70.34
2023-11-25T11:11:33.070Z,70.19
2023-11-25T11:14:15.514Z,70.17
2023-11-25T11:17:05.297Z,70.73
2023-11-25T11:19:42.509Z,69.93
2023-11-25T11:22:13.991Z,70.30
2023-11-25T11:25:08.329Z,69.14
2023-11-25T11:27:41.522Z,69.40
2023-11-25T11:30:30.858Z,69.84
2023-11-25T11:32:59.598Z,68.70
2023-11-25T11:35:39.815Z,68.81
2023-11-25T11:38:30.109Z,69.41
2023-11-25T11:41:17.407Z,69.01
2023-11-25T11:44:04.930Z,69.86
2023-11-25T11:46:40.135Z,69.56
2023-11-25T11:49:13.377Z,70.63
2023-11-25T11:52:01.698Z,71.99
2023-11-25T11:54:32.957Z,71.49
2023-11-25T11:57:14.842Z,72.13
2023-11-25T12:00:02.776Z,72.20
2023-11-25T12:02:32.746Z,72.67
2023-11-25T12:05:04.293Z,72.26
2023-11-25T12:12:10.026Z,73.41
2023-11-25T12:14:38.111Z,72.01
2023-11-25T12:17:15.023Z,71.88
2023-11-25T12:19:43.385Z,73.22
2023-11-25T12:22:12.882Z,72.55
2023-11-25T12:24:44.979Z,71.46
2023-11-25T12:27:16.215Z,70.62
2023-11-25T12:29:56.066Z,70.81
2023-11-25T12:32:33.503Z,70.23
2023-11-25T12:35:02.719Z,70.99
2023-11-25T12:38:07.282Z,68.23
2023-11-25T12:40:44.761Z,69.17
2023-11-25T12:43:18.417Z,68.44
2023-11-25T12:45:53.480Z,68.83
2023-11-25T12:48:36.312Z,68.11
2023-11-25T12:51:14.341Z,68.77
2023-11-25T12:53:58.128Z,67.96
2023-11-25T12:56:35.370Z,68.22
2023-11-25T12:59:10.167Z,68.66
2023-11-25T13:01:45.844Z,67.19
2023-11-25T13:04:29.765Z,67.63
2023-11-25T13:07:09.102Z,67.66
2023-11-25T13:09:44.921Z,66.89
2023-11-25T13:12:18.121Z,66.93
2023-11-25T13:14:47.179Z,68.39
2023-11-25T13:17:27.419Z,67.46
2023-11-25T13:20:17.957Z,66.74
2023-11-25T13:22:47.395Z,67.44
2023-11-25T13:25:26.762Z,67.61
2023-11-25T13:28:01.897Z,67.83
2023-11-25T13:30:34.438Z,67.51
2023-11-25T13:33:06.721Z,67.52
2023-11-25T13:35:39.275Z,67.44
2023-11-25T13:38:10.548Z,68.33
2023-11-25T13:40:42.128Z,68.92
2023-11-25T13:43:22.712Z,68.05
2023-11-25T13:45:53.565Z,68.64
2023-11-25T13:48:44.485Z,67.74
2023-11-25T13:51:16.723Z,69.46
2023-11-25T13:53:52.167Z,69.55
2023-11-25T13:56:45.328Z,69.45
2023-11-25T13:59:22.652Z,70.19
2023-11-25T14:01:53.199Z,70.31
2023-11-25T14:04:25.769Z,71.63
2023-11-25T14:07:02.746Z,71.06
2023-11-25T14:09:34.512Z,71.54
2023-11-25T14:12:19.480Z,72.16
2023-11-25T14:15:02.647Z,71.18
2023-11-25T14:17:52.509Z,72.16
2023-11-25T14:20:23.339Z,72.87
2023-11-25T14:22:51.692Z,73.14
2023-11-25T14:25:22.802Z,74.16
2023-11-25T14:28:10.628Z,74.64
2023-11-25T14:34:18.728Z,75.33
2023-11-25T14:37:30.594Z,76.49
2023-11-25T14:40:19.685Z,77.15
2023-11-25T14:42:52.102Z,78.75
2023-11-25T14:45:28.158Z,79.77
2023-11-25T14:47:56.144Z,80.18
2023-11-25T14:50:27.546Z,81.70
2023-11-25T14:53:10.165Z,82.09
2023-11-25T14:55:44.038Z,83.18
2023-11-25T14:58:13.234Z,83.09
2023-11-25T15:00:45.421Z,83.76
2023-11-25T15:03:34.714Z,83.27
2023-11-25T15:06:19.064Z,83.97
2023-11-25T15:08:50.134Z,83.26
2023-11-25T15:11:23.794Z,84.40
2023-11-25T15:14:39.533Z,83.91
2023-11-25T15:17:27.630Z,84.52
2023-11-25T15:20:05.110Z,84.34
2023-11-25T15:22:34.407Z,83.97
2023-11-25T15:25:02.613Z,83.72
2023-11-25T15:27:30.880Z,84.43
2023-11-25T15:30:16.168Z,84.23
2023-11-25T15:32:47.740Z,84.79
2023-11-25T15:35:23.567Z,83.05
2023-11-25T15:37:51.098Z,84.70
2023-11-25T15:40:22.203Z,85.33
2023-11-25T15:42:49.745Z,85.72
2023-11-25T15:45:18.007Z,85.83
2023-11-25T15:47:45.551Z,86.72
2023-11-25T15:50:13.040Z,87.16
2023-11-25T15:52:40.611Z,87.55
2023-11-25T15:55:12.571Z,87.69
2023-11-25T15:57:40.097Z,88.52
2023-11-25T16:00:14.721Z,86.20
2023-11-25T16:02:43.733Z,87.05
2023-11-25T16:05:16.056Z,87.96
2023-11-25T16:07:44.704Z,88.45
2023-11-25T16:10:13.384Z,88.76
2023-11-25T16:12:41.209Z,88.07
2023-11-25T16:15:10.091Z,87.76
2023-11-25T16:17:40.604Z,87.91
2023-11-25T16:20:08.626Z,87.32
2023-11-25T16:22:36.565Z,87.00
2023-11-25T16:25:06.859Z,87.79
2023-11-25T16:27:41.008Z,87.48
2023-11-25T16:30:15.549Z,86.92
2023-11-25T16:32:50.803Z,87.18
2023-11-25T16:35:23.465Z,87.69
2023-11-25T16:37:51.248Z,87.35
2023-11-25T16:40:19.918Z,87.93
2023-11-25T16:42:47.614Z,88.13
2023-11-25T16:45:17.459Z,87.00
2023-11-25T16:47:50.993Z,87.48
2023-11-25T16:50:20.972Z,86.38
2023-11-25T16:52:48.825Z,85.65
2023-11-25T16:55:17.294Z,86.86
2023-11-25T16:57:45.375Z,86.09
2023-11-25T17:00:17.464Z,85.50
2023-11-25T17:02:50.797Z,86.04
2023-11-25T17:05:23.683Z,87.24
2023-11-25T17:07:51.087Z,86.70
2023-11-25T17:10:18.618Z,86.44
2023-11-25T17:12:49.193Z,86.14
2023-11-25T17:15:16.508Z,87.13
2023-11-25T17:17:44.584Z,87.44
2023-11-25T17:20:12.154Z,88.00
2023-11-25T17:22:39.560Z,87.85
2023-11-25T17:25:12.415Z,89.22
2023-11-25T17:27:40.241Z,89.47
2023-11-25T17:30:08.025Z,88.78
2023-11-25T17:32:40.790Z,89.61
2023-11-25T17:35:10.280Z,90.00
2023-11-25T17:37:37.806Z,89.55
2023-11-25T17:40:06.547Z,90.01
2023-11-25T17:42:33.825Z,89.54
2023-11-25T17:45:01.553Z,93.02
2023-11-25T17:47:28.931Z,88.90
2023-11-25T17:49:56.490Z,89.52
2023-11-25T17:52:24.066Z,89.21
2023-11-25T17:54:51.335Z,88.80
2023-11-25T17:57:18.770Z,88.61
2023-11-25T17:59:46.128Z,90.13
2023-11-25T18:02:14.148Z,89.55
2023-11-25T18:04:42.132Z,89.36
2023-11-25T18:07:09.538Z,89.06
2023-11-25T18:09:39.342Z,87.91
2023-11-25T18:12:09.086Z,88.55
2023-11-25T18:14:36.785Z,88.70
2023-11-25T18:21:21.123Z,89.07
2023-11-25T18:23:53.630Z,89.04
2023-11-25T18:26:30.528Z,89.00
2023-11-25T18:29:01.853Z,88.66
2023-11-25T18:31:37.901Z,89.26
2023-11-25T18:34:25.308Z,90.23
2023-11-25T18:36:55.647Z,94.19
2023-11-25T18:40:06.639Z,91.07
2023-11-25T18:46:19.337Z,87.98
2023-11-25T18:48:57.698Z,87.79
2023-11-25T18:52:00.957Z,87.52
2023-11-25T18:54:34.548Z,87.73
2023-11-25T19:00:09.208Z,87.16
2023-11-25T19:02:40.705Z,88.70
2023-11-25T19:05:40.071Z,87.17
2023-11-25T19:08:09.962Z,87.86
2023-11-25T19:10:45.899Z,88.10
2023-11-25T19:13:13.566Z,88.18
2023-11-25T19:15:41.447Z,88.11
2023-11-25T19:18:18.522Z,87.98
2023-11-25T19:20:54.640Z,88.55
2023-11-25T19:24:22.677Z,89.64
2023-11-25T19:30:49.140Z,88.88
2023-11-25T19:33:16.495Z,89.12
2023-11-25T19:35:44.074Z,89.22
2023-11-25T19:38:12.386Z,89.27
2023-11-25T19:40:43.618Z,88.49
2023-11-25T19:43:34.192Z,88.48
2023-11-25T19:46:37.220Z,88.98
2023-11-25T19:49:06.748Z,88.09
2023-11-25T19:52:16.976Z,88.42
2023-11-25T19:54:59.047Z,89.00
2023-11-25T19:57:37.883Z,88.96
2023-11-25T20:00:46.659Z,88.07
2023-11-25T20:15:00.407Z,88.67
2023-11-25T20:18:33.510Z,87.40
2023-11-25T20:29:11.082Z,87.66
2023-11-25T20:32:23.089Z,89.76
2023-11-25T20:39:07.949Z,88.32
2023-11-25T20:51:53.447Z,88.21
2023-11-25T21:01:26.893Z,88.54
2023-11-25T21:03:54.828Z,87.43
2023-11-25T21:06:22.196Z,88.34
2023-11-25T21:08:49.577Z,88.12
2023-11-25T21:11:16.903Z,88.54
2023-11-25T21:13:44.805Z,88.52
2023-11-25T21:16:15.162Z,88.90
2023-11-25T21:18:43.140Z,88.65
2023-11-25T21:21:10.503Z,89.42
2023-11-25T21:23:37.708Z,89.52
2023-11-25T21:26:05.348Z,88.75
2023-11-25T21:28:33.014Z,89.71
2023-11-25T21:31:00.345Z,89.50
2023-11-25T21:33:27.731Z,90.16
2023-11-25T21:35:55.164Z,90.23
2023-11-25T21:38:22.982Z,89.86
2023-11-25T21:40:50.770Z,89.83
2023-11-25T21:43:17.945Z,90.25
2023-11-25T21:45:45.332Z,90.78
2023-11-25T21:48:12.881Z,90.86
2023-11-25T21:50:40.523Z,90.75
2023-11-25T21:53:08.109Z,90.46
2023-11-25T21:55:35.530Z,91.15
2023-11-25T21:58:02.920Z,90.45
2023-11-25T22:00:32.489Z,90.80
2023-11-25T22:03:00.533Z,91.21
2023-11-25T22:05:27.994Z,91.61
2023-11-25T22:07:55.328Z,91.41
2023-11-25T22:10:27.991Z,91.13
2023-11-25T22:12:58.064Z,91.71
2023-11-25T22:15:26.127Z,91.63
2023-11-25T22:17:55.098Z,91.42
2023-11-25T22:20:24.417Z,91.02
2023-11-25T22:23:00.684Z,91.65
2023-11-25T22:25:43.146Z,91.69
2023-11-25T22:28:15.712Z,92.28
2023-11-25T22:30:44.577Z,92.40
2023-11-25T22:33:12.484Z,92.55
2023-11-25T22:35:50.189Z,92.36
2023-11-25T22:38:21.288Z,92.25
2023-11-25T22:40:49.918Z,93.22
2023-11-25T22:43:20.686Z,93.00
2023-11-25T22:45:49.667Z,92.53
2023-11-25T22:48:17.003Z,92.46
2023-11-25T22:50:44.366Z,92.32
2023-11-25T22:53:15.987Z,91.94
2023-11-25T22:55:45.096Z,92.00
2023-11-25T22:58:12.556Z,91.35
2023-11-25T23:00:53.369Z,92.40
2023-11-25T23:03:21.861Z,93.00
2023-11-25T23:05:49.509Z,92.72
2023-11-25T23:08:17.121Z,92.77
2023-11-25T23:10:44.701Z,93.29
2023-11-25T23:13:12.088Z,93.87
2023-11-25T23:15:39.505Z,93.11
2023-11-25T23:18:07.079Z,94.03
2023-11-25T23:20:34.788Z,92.82
2023-11-25T23:23:02.081Z,93.43
2023-11-25T23:25:29.795Z,94.12
2023-11-25T23:27:57.024Z,92.75
2023-11-25T23:30:24.961Z,91.94
2023-11-25T23:32:52.353Z,92.35
2023-11-25T23:35:19.765Z,91.50
2023-11-25T23:37:47.037Z,91.34
2023-11-25T23:40:14.605Z,91.89
2023-11-25T23:42:41.797Z,92.52
2023-11-25T23:45:09.523Z,93.05
2023-11-25T23:47:38.536Z,93.07
2023-11-25T23:50:07.839Z,92.40
2023-11-25T23:52:37.046Z,92.20
2023-11-25T23:55:05.173Z,92.46
2023-11-25T23:57:32.592Z,92.45
